Time;durP1;ratioP1;P1;durP2;ratioP2;P2;SDS_P1;SDS_P2;PMS_P1;PMS_P2;Temp;Humidity;BMP_temperature;BMP_pressure;BME280_temperature;BME280_humidity;BME280_pressure;Samples;Min_cycle;Max_cycle;Signal;HPM_P1;HPM_P2
2022/11/11 00:00:10;;;;;;;;;;;;;;;6.22;100.00;98514.95;107653;1268;69956;-74
2022/11/11 00:03:12;;;;;;;;;;;;;;;6.20;100.00;98519.70;107625;1266;60585;-72
2022/11/11 00:06:04;;;;;;;;;;;;;;;6.16;100.00;98518.80;107643;1269;60528;-72
2022/11/11 00:08:52;;;;;;;;;;;;;;;6.15;100.00;98516.41;107646;1266;72649;-71
2022/11/11 00:11:40;;;;;;;;;;;;;;;6.17;100.00;98520.16;107610;1268;69514;-73
2022/11/11 00:14:28;;;;;;;;;;;;;;;6.15;100.00;98521.94;107636;1264;69603;-72
2022/11/11 00:26:40;;;;;;;;;;;;;;;6.15;100.00;98525.95;107694;1270;69673;-72
2022/11/11 00:29:30;;;;;;;;;;;;;;;6.17;100.00;98522.25;107642;1264;69266;-72
2022/11/11 00:32:23;;;;;;;;;;;;;;;6.18;100.00;98523.03;107608;1268;60580;-72
2022/11/11 00:41:26;;;;;;;;;;;;;;;6.17;100.00;98528.80;107654;1268;68013;-72
2022/11/11 00:44:16;;;;;;;;;;;;;;;6.19;100.00;98526.49;107619;1266;68602;-72
2022/11/11 00:53:28;;;;;;;;;;;;;;;6.26;100.00;98518.78;107687;1266;72072;-72
2022/11/11 00:56:16;;;;;;;;;;;;;;;6.26;100.00;98516.00;107666;1266;69133;-72
2022/11/11 00:59:06;;;;;;;;;;;;;;;6.28;100.00;98513.66;107651;1269;69609;-72
2022/11/11 01:01:54;;;;;;;;;;;;;;;6.30;100.00;98513.25;107634;1266;60521;-72
2022/11/11 01:04:42;;;;;;;;;;;;;;;6.32;100.00;98510.23;107618;1268;60510;-72
2022/11/11 01:07:31;;;;;;;;;;;;;;;6.33;100.00;98507.59;107669;1269;71710;-72
2022/11/11 01:10:40;;;;;;;;;;;;;;;6.34;100.00;98509.13;107654;1269;69493;-72
2022/11/11 01:13:29;;;;;;;;;;;;;;;6.33;100.00;98510.52;107620;1269;69686;-72
2022/11/11 01:16:24;;;;;;;;;;;;;;;6.33;100.00;98511.23;107610;1264;60534;-72
2022/11/11 01:19:12;;;;;;;;;;;;;;;6.33;100.00;98508.80;107649;1269;60522;-72
2022/11/11 01:22:00;;;;;;;;;;;;;;;6.33;100.00;98511.41;107653;1269;71643;-72
2022/11/11 01:24:49;;;;;;;;;;;;;;;6.34;100.00;98511.70;107627;1268;69646;-72
2022/11/11 01:27:36;;;;;;;;;;;;;;;6.35;100.00;98513.91;107582;1266;69545;-72
2022/11/11 01:30:25;;;;;;;;;;;;;;;6.35;100.00;98517.56;107664;1268;60474;-72
2022/11/11 01:33:14;;;;;;;;;;;;;;;6.35;100.00;98521.05;107677;1269;60544;-73
2022/11/11 01:36:05;;;;;;;;;;;;;;;6.34;100.00;98521.23;107656;1269;72251;-72
2022/11/11 01:38:54;;;;;;;;;;;;;;;6.34;100.00;98523.33;107693;1265;69699;-72
2022/11/11 01:41:42;;;;;;;;;;;;;;;6.33;100.00;98526.47;107656;1265;69920;-72
2022/11/11 01:44:45;;;;;;;;;;;;;;;6.32;100.00;98520.96;107644;1268;60510;-72
2022/11/11 01:51:05;;;;;;;;;;;;;;;6.31;100.00;98517.20;107683;1265;72078;-73
2022/11/11 01:53:58;;;;;;;;;;;;;;;6.31;100.00;98525.17;107776;1261;69178;-73
2022/11/11 01:56:49;;;;;;;;;;;;;;;6.29;100.00;98521.58;107796;1268;69101;-74
2022/11/11 01:59:40;;;;;;;;;;;;;;;6.29;100.00;98518.32;107750;1268;60641;-73
2022/11/11 02:02:48;;;;;;;;;;;;;;;6.27;100.00;98514.55;107743;1264;60539;-74
2022/11/11 02:05:46;;;;;;;;;;;;;;;6.30;100.00;98513.09;107745;1268;72039;-73
2022/11/11 02:08:36;;;;;;;;;;;;;;;6.32;100.00;98516.80;107767;1264;69180;-72
2022/11/11 02:14:36;;;;;;;;;;;;;;;6.31;100.00;98523.77;107645;1268;60595;-72
2022/11/11 02:17:26;;;;;;;;;;;;;;;6.33;100.00;98521.45;107646;1268;60478;-72
2022/11/11 02:20:17;;;;;;;;;;;;;;;6.33;100.00;98522.98;107760;1268;72178;-72
2022/11/11 02:23:12;;;;;;;;;;;;;;;6.34;100.00;98524.34;107784;1266;68512;-72
2022/11/11 02:26:03;;;;;;;;;;;;;;;6.35;100.00;98525.53;107654;1268;69124;-71
2022/11/11 02:28:53;;;;;;;;;;;;;;;6.34;100.00;98526.27;107666;1268;60483;-72
2022/11/11 02:31:42;;;;;;;;;;;;;;;6.34;100.00;98526.41;107643;1269;60511;-72
2022/11/11 02:34:32;;;;;;;;;;;;;;;6.36;100.00;98529.79;107638;1264;72275;-74
2022/11/11 02:37:24;;;;;;;;;;;;;;;6.39;100.00;98531.27;107621;1268;69682;-74
2022/11/11 02:40:13;;;;;;;;;;;;;;;6.42;100.00;98532.70;107749;1264;68986;-74
2022/11/11 02:43:01;;;;;;;;;;;;;;;6.44;100.00;98534.55;107716;1268;60508;-72
2022/11/11 02:45:52;;;;;;;;;;;;;;;6.44;100.00;98537.50;107758;1268;60421;-72
2022/11/11 02:48:40;;;;;;;;;;;;;;;6.42;100.00;98532.72;107638;1264;72071;-72
2022/11/11 02:51:30;;;;;;;;;;;;;;;6.41;100.00;98534.14;107693;1266;69156;-72
2022/11/11 02:54:19;;;;;;;;;;;;;;;6.41;100.00;98537.43;107630;1268;69749;-72
2022/11/11 02:57:08;;;;;;;;;;;;;;;6.40;100.00;98539.73;107780;1267;60505;-73
2022/11/11 02:59:59;;;;;;;;;;;;;;;6.40;100.00;98542.30;107783;1268;60479;-73
2022/11/11 03:02:47;;;;;;;;;;;;;;;6.38;100.00;98539.61;107767;1268;71243;-73
2022/11/11 03:05:36;;;;;;;;;;;;;;;6.38;100.00;98546.54;107673;1266;69451;-73
2022/11/11 03:08:25;;;;;;;;;;;;;;;6.40;100.00;98547.02;107729;1265;69339;-73
2022/11/11 03:11:26;;;;;;;;;;;;;;;6.39;100.00;98543.92;107748;1259;60524;-72
2022/11/11 03:14:14;;;;;;;;;;;;;;;6.40;100.00;98544.73;107776;1264;60458;-73
2022/11/11 03:23:19;;;;;;;;;;;;;;;6.38;100.00;98548.10;107658;1268;69298;-72
2022/11/11 03:26:09;;;;;;;;;;;;;;;6.36;100.00;98554.04;107642;1264;60501;-72
2022/11/11 03:28:58;;;;;;;;;;;;;;;6.39;100.00;98555.34;107688;1268;60535;-72
2022/11/11 03:31:47;;;;;;;;;;;;;;;6.41;100.00;98556.98;107665;1266;72644;-72
2022/11/11 03:34:35;;;;;;;;;;;;;;;6.43;100.00;98557.63;107640;1264;69342;-72
2022/11/11 03:40:30;;;;;;;;;;;;;;;6.43;100.00;98557.96;107650;1268;60477;-72
2022/11/11 03:43:19;;;;;;;;;;;;;;;6.43;100.00;98554.33;107637;1264;60480;-72
2022/11/11 03:46:08;;;;;;;;;;;;;;;6.43;100.00;98555.55;107654;1265;72898;-72
2022/11/11 03:48:57;;;;;;;;;;;;;;;6.44;100.00;98557.57;107688;1264;69058;-72
2022/11/11 03:51:44;;;;;;;;;;;;;;;6.46;100.00;98557.84;107652;1268;69718;-73
2022/11/11 03:54:32;;;;;;;;;;;;;;;6.47;100.00;98560.05;107632;1266;60555;-72
2022/11/11 03:57:29;;;;;;;;;;;;;;;6.48;100.00;98563.30;107676;1266;60520;-72
2022/11/11 04:00:19;;;;;;;;;;;;;;;6.49;100.00;98558.23;107695;1264;72815;-72
2022/11/11 04:16:04;;;;;;;;;;;;;;;6.54;100.00;98566.02;107634;1265;60939;-72
2022/11/11 04:21:58;;;;;;;;;;;;;;;6.60;100.00;98568.54;107640;1268;69967;-73
2022/11/11 04:29:27;;;;;;;;;;;;;;;6.63;100.00;98575.54;107614;1264;60487;-73
2022/11/11 04:31:03;;;;;;;;;;;;;;;6.65;100.00;98576.33;107758;1268;72053;-73
2022/11/11 04:33:50;;;;;;;;;;;;;;;6.67;100.00;98579.56;107764;1268;69062;-74
2022/11/11 04:36:38;;;;;;;;;;;;;;;6.68;100.00;98577.45;107730;1265;69288;-74
2022/11/11 04:42:33;;;;;;;;;;;;;;;6.70;100.00;98587.05;107750;1268;60481;-74
2022/11/11 04:45:32;;;;;;;;;;;;;;;6.71;100.00;98585.63;107776;1268;72468;-73
2022/11/11 04:48:19;;;;;;;;;;;;;;;6.72;100.00;98591.13;107732;1264;69097;-74
2022/11/11 04:51:07;;;;;;;;;;;;;;;6.73;100.00;98591.80;107730;1266;69221;-74
2022/11/11 04:53:54;;;;;;;;;;;;;;;6.75;100.00;98597.09;107757;1268;60506;-74
2022/11/11 04:56:48;;;;;;;;;;;;;;;6.74;100.00;98599.73;107760;1266;60530;-74
2022/11/11 04:59:36;;;;;;;;;;;;;;;6.76;100.00;98604.68;107717;1269;72043;-74
2022/11/11 05:08:54;;;;;;;;;;;;;;;6.78;100.00;98608.39;107719;1269;69263;-74
2022/11/11 05:09:00;;;;;;;;;;;;;;;6.81;100.00;98609.15;107613;1264;60558;-74
2022/11/11 05:11:47;;;;;;;;;;;;;;;6.83;100.00;98614.28;107633;1268;60935;-73
2022/11/11 05:27:11;;;;;;;;;;;;;;;6.87;100.00;98625.02;107639;1264;60602;-72
2022/11/11 05:29:58;;;;;;;;;;;;;;;6.88;100.00;98626.73;107597;1264;71872;-72
2022/11/11 05:32:46;;;;;;;;;;;;;;;6.89;100.00;98622.73;107603;1264;68554;-72
2022/11/11 05:35:35;;;;;;;;;;;;;;;6.90;100.00;98627.86;107599;1268;70049;-72
2022/11/11 05:38:23;;;;;;;;;;;;;;;6.90;100.00;98629.43;107644;1268;60570;-72
2022/11/11 05:41:10;;;;;;;;;;;;;;;6.88;100.00;98631.41;107629;1266;60504;-72
2022/11/11 05:43:58;;;;;;;;;;;;;;;6.88;100.00;98633.48;107651;1266;71392;-72
2022/11/11 05:46:46;;;;;;;;;;;;;;;6.89;100.00;98634.67;107629;1268;69296;-72
2022/11/11 05:49:33;;;;;;;;;;;;;;;6.88;100.00;98640.58;107653;1266;70261;-72
2022/11/11 05:52:20;;;;;;;;;;;;;;;6.90;100.00;98649.87;107748;1266;60579;-72
2022/11/11 05:55:08;;;;;;;;;;;;;;;6.94;100.00;98654.79;107585;1266;60461;-74
2022/11/11 05:57:55;;;;;;;;;;;;;;;6.96;100.00;98665.08;107757;1266;71253;-73
2022/11/11 06:00:43;;;;;;;;;;;;;;;6.98;100.00;98669.16;107814;1268;69191;-73
2022/11/11 06:03:30;;;;;;;;;;;;;;;7.01;100.00;98670.95;107787;1268;69251;-73
2022/11/11 06:06:17;;;;;;;;;;;;;;;7.03;100.00;98678.69;107646;1266;60632;-74
2022/11/11 06:09:04;;;;;;;;;;;;;;;7.05;100.00;98675.66;107733;1264;60533;-74
2022/11/11 06:11:51;;;;;;;;;;;;;;;7.05;100.00;98676.17;107766;1266;71258;-73
2022/11/11 06:14:39;;;;;;;;;;;;;;;7.05;100.00;98676.69;107644;1269;69176;-73
2022/11/11 06:17:26;;;;;;;;;;;;;;;7.07;100.00;98679.21;107681;1264;68356;-73
2022/11/11 06:20:14;;;;;;;;;;;;;;;7.09;100.00;98681.02;107615;1269;60515;-74
2022/11/11 06:23:02;;;;;;;;;;;;;;;7.09;100.00;98679.83;107659;1268;60519;-75
2022/11/11 06:28:56;;;;;;;;;;;;;;;7.10;100.00;98693.27;107644;1266;68702;-74
2022/11/11 06:31:44;;;;;;;;;;;;;;;7.14;100.00;98701.48;107635;1269;69329;-73
2022/11/11 06:34:31;;;;;;;;;;;;;;;7.20;100.00;98703.86;107652;1268;60589;-73
2022/11/11 06:37:18;;;;;;;;;;;;;;;7.26;100.00;98705.70;107781;1268;60486;-73
2022/11/11 06:40:06;;;;;;;;;;;;;;;7.34;100.00;98709.55;107613;1266;72037;-73
2022/11/11 06:42:53;;;;;;;;;;;;;;;7.42;100.00;98709.58;107748;1268;69010;-73
2022/11/11 06:45:40;;;;;;;;;;;;;;;7.52;100.00;98708.31;107753;1266;69936;-73
2022/11/11 06:48:28;;;;;;;;;;;;;;;7.60;100.00;98714.59;107730;1268;60578;-73
2022/11/11 06:51:15;;;;;;;;;;;;;;;7.67;100.00;98722.10;107615;1266;60495;-73
2022/11/11 06:54:03;;;;;;;;;;;;;;;7.72;100.00;98732.34;107677;1268;72423;-73
2022/11/11 06:56:50;;;;;;;;;;;;;;;7.76;100.00;98732.36;107628;1268;68052;-73
2022/11/11 06:59:37;;;;;;;;;;;;;;;7.79;100.00;98729.77;107625;1264;70030;-73
2022/11/11 07:02:24;;;;;;;;;;;;;;;7.83;100.00;98740.54;107639;1268;60566;-73
2022/11/11 07:05:12;;;;;;;;;;;;;;;7.90;100.00;98743.75;107621;1266;60538;-73
2022/11/11 07:08:02;;;;;;;;;;;;;;;7.97;100.00;98744.52;107623;1268;71732;-73
2022/11/11 07:10:50;;;;;;;;;;;;;;;8.05;100.00;98748.84;107756;1269;67404;-73
2022/11/11 07:13:37;;;;;;;;;;;;;;;8.13;100.00;98749.23;107780;1264;68144;-73
2022/11/11 07:16:24;;;;;;;;;;;;;;;8.19;100.00;98748.79;107748;1266;60565;-75
2022/11/11 07:19:11;;;;;;;;;;;;;;;8.26;100.00;98750.26;107778;1268;60560;-74
2022/11/11 07:21:58;;;;;;;;;;;;;;;8.30;100.00;98755.98;107772;1266;72176;-74
2022/11/11 07:24:45;;;;;;;;;;;;;;;8.30;100.00;98761.35;107739;1268;69174;-73
2022/11/11 07:27:37;;;;;;;;;;;;;;;8.26;100.00;98767.60;106422;1268;1577590;-73
2022/11/11 07:30:24;;;;;;;;;;;;;;;8.25;100.00;98763.48;107641;1266;60578;-73
2022/11/11 07:33:13;;;;;;;;;;;;;;;8.24;100.00;98763.38;107603;1264;60574;-73
2022/11/11 07:36:03;;;;;;;;;;;;;;;8.25;100.00;98763.33;107665;1261;72173;-73
2022/11/11 07:38:51;;;;;;;;;;;;;;;8.30;100.00;98763.64;107611;1268;68555;-73
2022/11/11 07:41:38;;;;;;;;;;;;;;;8.33;100.00;98773.38;107650;1264;69616;-73
2022/11/11 07:44:27;;;;;;;;;;;;;;;8.33;100.00;98777.22;107670;1264;61038;-73
2022/11/11 07:47:14;;;;;;;;;;;;;;;8.34;100.00;98781.16;107643;1268;60508;-73
2022/11/11 07:50:03;;;;;;;;;;;;;;;8.33;100.00;98778.10;107607;1264;71501;-73
2022/11/11 07:52:54;;;;;;;;;;;;;;;8.33;100.00;98778.42;107625;1265;68592;-73
2022/11/11 07:55:43;;;;;;;;;;;;;;;8.33;100.00;98779.65;107585;1268;69604;-73
2022/11/11 07:58:30;;;;;;;;;;;;;;;8.35;100.00;98777.30;107632;1268;60513;-73
2022/11/11 08:01:18;;;;;;;;;;;;;;;8.40;100.00;98777.81;107629;1268;60518;-73
2022/11/11 08:04:05;;;;;;;;;;;;;;;8.43;100.00;98779.27;107656;1264;72346;-73
2022/11/11 08:06:53;;;;;;;;;;;;;;;8.47;100.00;98777.73;107595;1268;69921;-71
2022/11/11 08:09:40;;;;;;;;;;;;;;;8.56;100.00;98776.95;107623;1268;69270;-71
2022/11/11 08:15:32;;;;;;;;;;;;;;;8.82;100.00;98776.71;107763;1264;60500;-70
2022/11/11 08:18:19;;;;;;;;;;;;;;;8.98;100.00;98777.91;107729;1268;72165;-71
2022/11/11 08:21:06;;;;;;;;;;;;;;;9.07;100.00;98780.13;107636;1269;69088;-69
2022/11/11 08:23:55;;;;;;;;;;;;;;;9.12;100.00;98781.98;107598;1265;69327;-70
2022/11/11 08:27:02;;;;;;;;;;;;;;;9.17;99.95;98786.09;107626;1265;60565;-70
2022/11/11 08:29:49;;;;;;;;;;;;;;;9.16;99.06;98783.86;107599;1269;60504;-69
2022/11/11 08:32:37;;;;;;;;;;;;;;;9.16;99.31;98786.47;107586;1265;72803;-71
2022/11/11 08:35:24;;;;;;;;;;;;;;;9.11;98.67;98786.70;107727;1268;69172;-70
2022/11/11 08:38:12;;;;;;;;;;;;;;;9.13;98.70;98790.77;107772;1264;69069;-71
2022/11/11 08:41:00;;;;;;;;;;;;;;;9.19;98.70;98793.14;107722;1264;60599;-71
2022/11/11 08:43:50;;;;;;;;;;;;;;;9.24;97.92;98799.51;107712;1268;60953;-71
2022/11/11 08:46:37;;;;;;;;;;;;;;;9.38;98.77;98805.15;107757;1268;71569;-71
2022/11/11 08:49:24;;;;;;;;;;;;;;;9.52;97.16;98809.73;107754;1268;68219;-72
2022/11/11 08:52:11;;;;;;;;;;;;;;;9.60;95.47;98814.55;107730;1268;69488;-71
2022/11/11 08:55:01;;;;;;;;;;;;;;;9.70;95.81;98812.88;107759;1265;60583;-71
2022/11/11 08:57:56;;;;;;;;;;;;;;;9.80;95.20;98813.11;107635;1264;60475;-71
2022/11/11 09:00:43;;;;;;;;;;;;;;;9.80;94.02;98819.05;107790;1268;72123;-71
2022/11/11 09:03:31;;;;;;;;;;;;;;;9.89;94.28;98821.57;107937;1268;69270;-69
2022/11/11 09:06:18;;;;;;;;;;;;;;;9.95;94.13;98826.32;107639;1267;68490;-72
2022/11/11 09:09:05;;;;;;;;;;;;;;;9.84;93.64;98833.65;107738;1268;60554;-71
2022/11/11 09:11:55;;;;;;;;;;;;;;;9.77;94.02;98836.09;107615;1268;60481;-70
2022/11/11 09:14:42;;;;;;;;;;;;;;;9.69;95.07;98836.55;107601;1264;71681;-70
2022/11/11 09:17:29;;;;;;;;;;;;;;;9.68;95.20;98842.04;107638;1265;68838;-70
2022/11/11 09:20:17;;;;;;;;;;;;;;;9.65;94.62;98840.24;107600;1268;70060;-69
2022/11/11 09:23:10;;;;;;;;;;;;;;;9.59;94.48;98839.86;107635;1269;60568;-69
2022/11/11 09:26:03;;;;;;;;;;;;;;;9.57;94.71;98836.48;107680;1268;60524;-70
2022/11/11 09:28:50;;;;;;;;;;;;;;;9.52;95.44;98840.51;107640;1264;71891;-69
2022/11/11 09:31:38;;;;;;;;;;;;;;;9.49;95.77;98841.02;107663;1264;69230;-69
2022/11/11 09:34:31;;;;;;;;;;;;;;;9.51;96.09;98844.91;107639;1266;69382;-69
2022/11/11 09:37:19;;;;;;;;;;;;;;;9.54;96.38;98841.27;107614;1268;60496;-69
2022/11/11 09:40:06;;;;;;;;;;;;;;;9.54;96.27;98840.42;107645;1264;60435;-71
2022/11/11 09:42:59;;;;;;;;;;;;;;;9.54;96.25;98838.67;107656;1268;72093;-71
2022/11/11 09:45:46;;;;;;;;;;;;;;;9.56;96.77;98837.89;107653;1264;70617;-71
2022/11/11 09:48:36;;;;;;;;;;;;;;;9.63;96.36;98841.38;107723;1264;70014;-70
2022/11/11 09:51:32;;;;;;;;;;;;;;;9.70;95.84;98841.95;107675;1268;60543;-69
2022/11/11 09:54:29;;;;;;;;;;;;;;;9.79;95.73;98846.05;107592;1268;60577;-69
2022/11/11 09:57:33;;;;;;;;;;;;;;;9.90;95.09;98849.36;107592;1265;72032;-70
2022/11/11 10:00:23;;;;;;;;;;;;;;;10.00;95.15;98848.38;107640;1268;69846;-71
2022/11/11 10:03:10;;;;;;;;;;;;;;;10.09;94.71;98852.14;107647;1264;68830;-71
2022/11/11 10:06:02;;;;;;;;;;;;;;;10.13;94.20;98856.11;107628;1267;60957;-71
2022/11/11 10:09:02;;;;;;;;;;;;;;;10.12;93.97;98854.93;107608;1266;60511;-71
2022/11/11 10:11:49;;;;;;;;;;;;;;;10.00;93.62;98859.71;107618;1264;72032;-70
2022/11/11 10:14:38;;;;;;;;;;;;;;;9.95;94.25;98854.69;107658;1264;69243;-70
2022/11/11 10:17:41;;;;;;;;;;;;;;;9.91;94.35;98855.92;107609;1268;69227;-70
2022/11/11 10:20:31;;;;;;;;;;;;;;;9.87;94.16;98849.33;107751;1264;60618;-70
2022/11/11 10:23:20;;;;;;;;;;;;;;;9.88;94.50;98845.29;107749;1265;60449;-70
2022/11/11 10:26:20;;;;;;;;;;;;;;;9.92;94.79;98843.35;107739;1268;72236;-69
2022/11/11 10:29:18;;;;;;;;;;;;;;;9.94;93.80;98843.29;107585;1268;68573;-70
2022/11/11 10:32:23;;;;;;;;;;;;;;;10.02;94.52;98846.56;107630;1264;68784;-69
2022/11/11 10:35:14;;;;;;;;;;;;;;;10.09;94.12;98843.79;107641;1268;60521;-69
2022/11/11 10:38:06;;;;;;;;;;;;;;;10.16;93.84;98843.09;107646;1264;60516;-69
2022/11/11 10:40:56;;;;;;;;;;;;;;;10.19;93.18;98843.27;107676;1264;71446;-69
2022/11/11 10:43:45;;;;;;;;;;;;;;;10.26;92.85;98844.05;107633;1268;69658;-69
2022/11/11 10:46:40;;;;;;;;;;;;;;;10.29;91.84;98844.40;107614;1265;69913;-70
2022/11/11 10:49:30;;;;;;;;;;;;;;;10.32;91.76;98837.83;107618;1266;60899;-69
2022/11/11 10:52:40;;;;;;;;;;;;;;;10.28;91.61;98830.86;107595;1264;60576;-69
2022/11/11 10:55:39;;;;;;;;;;;;;;;10.24;91.81;98827.92;107622;1264;72227;-70
2022/11/11 10:58:31;;;;;;;;;;;;;;;10.31;92.18;98827.23;107630;1268;69699;-71
2022/11/11 11:01:21;;;;;;;;;;;;;;;10.40;91.09;98829.02;107605;1268;69137;-71
2022/11/11 11:04:22;;;;;;;;;;;;;;;10.51;90.10;98827.99;107596;1268;60530;-69
2022/11/11 11:07:13;;;;;;;;;;;;;;;10.56;89.53;98824.20;107620;1268;60952;-69
2022/11/11 11:10:05;;;;;;;;;;;;;;;10.64;90.29;98818.44;107651;1268;72556;-69
2022/11/11 11:12:58;;;;;;;;;;;;;;;10.61;90.54;98820.83;107616;1265;69201;-70
2022/11/11 11:15:48;;;;;;;;;;;;;;;10.61;90.17;98822.96;107572;1264;70733;-70
2022/11/11 11:18:36;;;;;;;;;;;;;;;10.64;90.18;98814.42;107623;1264;60954;-69
2022/11/11 11:21:46;;;;;;;;;;;;;;;10.69;90.26;98807.85;107648;1266;60508;-69
2022/11/11 11:24:36;;;;;;;;;;;;;;;10.75;90.00;98810.05;107707;1263;72805;-68
2022/11/11 11:27:29;;;;;;;;;;;;;;;10.75;88.95;98809.86;107694;1266;69170;-70
2022/11/11 11:30:23;;;;;;;;;;;;;;;10.71;88.36;98805.73;107634;1268;69925;-68
2022/11/11 11:33:10;;;;;;;;;;;;;;;10.69;88.85;98806.64;107605;1271;60572;-69
2022/11/11 11:36:12;;;;;;;;;;;;;;;10.68;89.38;98806.35;107666;1271;60492;-68
2022/11/11 11:39:00;;;;;;;;;;;;;;;10.68;87.86;98806.17;107642;1264;70561;-69
2022/11/11 11:41:50;;;;;;;;;;;;;;;10.69;87.06;98800.55;107597;1264;69288;-69
2022/11/11 11:44:38;;;;;;;;;;;;;;;10.74;87.17;98801.88;107618;1264;69206;-68
2022/11/11 11:47:38;;;;;;;;;;;;;;;10.83;86.45;98800.35;107611;1268;60576;-68
2022/11/11 11:50:29;;;;;;;;;;;;;;;10.94;87.67;98793.52;107617;1268;60479;-68
2022/11/11 11:53:19;;;;;;;;;;;;;;;10.96;85.15;98789.40;107626;1265;72404;-70
2022/11/11 11:56:12;;;;;;;;;;;;;;;11.00;85.64;98794.27;107720;1271;69032;-70
2022/11/11 11:59:08;;;;;;;;;;;;;;;11.10;87.09;98790.94;107622;1271;69203;-70
2022/11/11 12:02:04;;;;;;;;;;;;;;;11.15;87.33;98791.33;107630;1267;60529;-70
2022/11/11 12:05:07;;;;;;;;;;;;;;;11.19;87.74;98791.63;107669;1269;60523;-70
2022/11/11 12:08:08;;;;;;;;;;;;;;;11.22;87.59;98795.48;107681;1268;72902;-70
2022/11/11 12:11:00;;;;;;;;;;;;;;;11.19;86.22;98791.33;107663;1269;69828;-70
2022/11/11 12:13:47;;;;;;;;;;;;;;;11.16;85.21;98791.31;107594;1264;68753;-70
2022/11/11 12:17:10;;;;;;;;;;;;;;;11.18;86.55;98791.35;107624;1269;60541;-70
2022/11/11 12:20:00;;;;;;;;;;;;;;;11.23;86.16;98786.59;107315;1273;60580;-71
2022/11/11 12:22:51;;;;;;;;;;;;;;;11.19;83.86;98785.20;107763;1264;72430;-69
2022/11/11 12:25:41;;;;;;;;;;;;;;;11.21;84.64;98783.14;107789;1269;69828;-69
2022/11/11 12:28:50;;;;;;;;;;;;;;;11.20;84.94;98781.80;107631;1269;69540;-68
2022/11/11 12:31:52;;;;;;;;;;;;;;;11.19;85.99;98791.12;107683;1265;60554;-70
2022/11/11 12:34:45;;;;;;;;;;;;;;;11.13;84.18;98795.15;107680;1268;60511;-69
2022/11/11 12:37:38;;;;;;;;;;;;;;;11.07;83.37;98797.36;107679;1268;71695;-71
2022/11/11 12:40:41;;;;;;;;;;;;;;;11.03;83.21;98807.02;107649;1267;69228;-71
2022/11/11 12:43:45;;;;;;;;;;;;;;;10.88;83.67;98807.79;107793;1269;69176;-72
2022/11/11 12:46:52;;;;;;;;;;;;;;;10.84;83.42;98808.85;107710;1270;60573;-70
2022/11/11 12:49:48;;;;;;;;;;;;;;;10.84;84.41;98807.45;107549;1269;60980;-71
2022/11/11 12:52:37;;;;;;;;;;;;;;;10.80;82.71;98803.35;107623;1270;72200;-70
2022/11/11 12:55:25;;;;;;;;;;;;;;;10.82;82.74;98801.30;107602;1271;69186;-70
2022/11/11 12:58:24;;;;;;;;;;;;;;;10.93;83.83;98798.60;107592;1267;70864;-70
2022/11/11 13:01:17;;;;;;;;;;;;;;;11.36;84.44;98796.52;107730;1269;60999;-71
2022/11/11 13:04:07;;;;;;;;;;;;;;;11.70;83.91;98797.23;107714;1265;60554;-71
2022/11/11 13:07:00;;;;;;;;;;;;;;;12.17;81.53;98794.81;107589;1270;72295;-70
2022/11/11 13:10:08;;;;;;;;;;;;;;;12.30;79.21;98796.18;107621;1270;69007;-71
2022/11/11 13:12:55;;;;;;;;;;;;;;;12.34;81.10;98799.45;107599;1269;69852;-70
2022/11/11 13:15:43;;;;;;;;;;;;;;;12.33;79.42;98798.84;107591;1268;60691;-70
2022/11/11 13:18:49;;;;;;;;;;;;;;;12.28;79.05;98799.45;107651;1270;60490;-70
2022/11/11 13:21:43;;;;;;;;;;;;;;;12.21;80.36;98798.77;107633;1270;71315;-70
2022/11/11 13:24:31;;;;;;;;;;;;;;;12.07;79.62;98797.48;107617;1270;69085;-70
2022/11/11 13:27:25;;;;;;;;;;;;;;;11.85;78.90;98796.80;107600;1267;69100;-70
2022/11/11 13:30:41;;;;;;;;;;;;;;;11.70;79.55;98801.44;107735;1268;60975;-70
2022/11/11 13:33:57;;;;;;;;;;;;;;;11.57;79.95;98798.90;107473;1271;60527;-70
2022/11/11 13:36:50;;;;;;;;;;;;;;;11.54;80.68;98802.70;107617;1268;72639;-69
2022/11/11 13:39:39;;;;;;;;;;;;;;;11.44;80.01;98802.36;107672;1261;69692;-70
2022/11/11 13:42:35;;;;;;;;;;;;;;;11.46;79.91;98806.59;107566;1267;69674;-70
2022/11/11 13:45:32;;;;;;;;;;;;;;;11.49;79.50;98809.61;107607;1269;60585;-70
2022/11/11 13:48:22;;;;;;;;;;;;;;;11.49;79.41;98814.46;107619;1271;60512;-70
2022/11/11 13:51:24;;;;;;;;;;;;;;;11.40;79.57;98809.55;107632;1270;72697;-70
2022/11/11 13:54:23;;;;;;;;;;;;;;;11.28;80.41;98811.23;107574;1270;68601;-71
2022/11/11 13:57:13;;;;;;;;;;;;;;;11.15;81.07;98818.55;107746;1267;68290;-70
2022/11/11 14:00:00;;;;;;;;;;;;;;;11.07;81.54;98819.71;107742;1267;60611;-70
2022/11/11 14:03:07;;;;;;;;;;;;;;;10.95;81.69;98820.88;107598;1270;60925;-70
2022/11/11 14:06:13;;;;;;;;;;;;;;;10.78;82.27;98827.15;107638;1267;71234;-71
2022/11/11 14:09:00;;;;;;;;;;;;;;;10.75;82.85;98826.57;107626;1268;69192;-70
2022/11/11 14:11:48;;;;;;;;;;;;;;;10.71;82.49;98819.83;107611;1270;69728;-70
2022/11/11 14:14:35;;;;;;;;;;;;;;;10.55;83.60;98824.13;107608;1267;60635;-71
2022/11/11 14:17:22;;;;;;;;;;;;;;;10.41;85.16;98821.84;107638;1270;60572;-70
2022/11/11 14:20:28;;;;;;;;;;;;;;;10.29;86.47;98823.52;107664;1270;72711;-70
2022/11/11 14:23:28;;;;;;;;;;;;;;;10.06;87.63;98827.71;107619;1267;69825;-70
2022/11/11 14:26:20;;;;;;;;;;;;;;;9.86;88.26;98827.46;107630;1271;67367;-70
2022/11/11 14:29:15;;;;;;;;;;;;;;;9.66;88.81;98826.98;107586;1271;60519;-70
2022/11/11 14:32:02;;;;;;;;;;;;;;;9.49;89.56;98823.97;107754;1270;60521;-69
2022/11/11 14:34:58;;;;;;;;;;;;;;;9.30;89.63;98816.10;107645;1261;71456;-69
2022/11/11 14:37:55;;;;;;;;;;;;;;;9.14;89.94;98814.58;107614;1270;69008;-69
2022/11/11 14:40:42;;;;;;;;;;;;;;;9.01;90.92;98817.77;107604;1270;69184;-69
2022/11/11 14:43:32;;;;;;;;;;;;;;;9.02;92.29;98817.39;107635;1268;60961;-69
2022/11/11 14:46:20;;;;;;;;;;;;;;;8.97;92.94;98819.67;107635;1270;60465;-69
2022/11/11 14:49:07;;;;;;;;;;;;;;;8.85;93.62;98818.64;107609;1266;72861;-71
2022/11/11 14:51:58;;;;;;;;;;;;;;;8.74;94.07;98821.20;107631;1271;69407;-70
2022/11/11 14:55:05;;;;;;;;;;;;;;;8.61;95.13;98821.92;107651;1271;68812;-70
2022/11/11 14:58:01;;;;;;;;;;;;;;;8.48;96.00;98822.31;107572;1269;60494;-70
2022/11/11 15:00:51;;;;;;;;;;;;;;;8.38;95.64;98821.16;107689;1271;60550;-69
2022/11/11 15:03:48;;;;;;;;;;;;;;;8.28;94.29;98815.12;107619;1271;72967;-70
2022/11/11 15:06:44;;;;;;;;;;;;;;;8.17;94.01;98813.65;107661;1267;68654;-70
2022/11/11 15:09:50;;;;;;;;;;;;;;;8.07;94.13;98815.61;107611;1267;69299;-70
2022/11/11 15:12:44;;;;;;;;;;;;;;;7.97;95.28;98815.67;107604;1267;60580;-70
2022/11/11 15:15:44;;;;;;;;;;;;;;;7.88;96.18;98814.66;107587;1268;60570;-70
2022/11/11 15:18:51;;;;;;;;;;;;;;;7.77;96.88;98809.70;107613;1270;72107;-70
2022/11/11 15:21:59;;;;;;;;;;;;;;;7.67;96.78;98810.08;107634;1271;68632;-70
2022/11/11 15:24:53;;;;;;;;;;;;;;;7.58;96.78;98811.30;107613;1270;69082;-70
2022/11/11 15:27:53;;;;;;;;;;;;;;;7.48;96.73;98820.88;107609;1271;60552;-70
2022/11/11 15:30:59;;;;;;;;;;;;;;;7.38;98.04;98826.81;107610;1271;60502;-71
2022/11/11 15:33:47;;;;;;;;;;;;;;;7.27;98.05;98838.84;107638;1265;72875;-70
2022/11/11 15:36:49;;;;;;;;;;;;;;;7.19;97.73;98842.27;107634;1270;69574;-70
2022/11/11 15:39:41;;;;;;;;;;;;;;;7.11;97.63;98843.41;107592;1271;68608;-70
2022/11/11 15:42:33;;;;;;;;;;;;;;;7.05;97.65;98842.05;107605;1270;60640;-70
2022/11/11 15:45:22;;;;;;;;;;;;;;;6.99;97.95;98844.85;107613;1267;60545;-70
2022/11/11 15:48:30;;;;;;;;;;;;;;;6.94;99.62;98852.33;107639;1271;73357;-70
2022/11/11 15:51:17;;;;;;;;;;;;;;;6.85;100.00;98854.88;107769;1265;68575;-70
2022/11/11 15:54:08;;;;;;;;;;;;;;;6.78;100.00;98854.27;107603;1270;70031;-70
2022/11/11 15:56:56;;;;;;;;;;;;;;;6.72;100.00;98858.29;107626;1271;60503;-70
2022/11/11 15:59:43;;;;;;;;;;;;;;;6.67;99.83;98858.48;107621;1271;60482;-69
2022/11/11 16:02:32;;;;;;;;;;;;;;;6.61;100.00;98858.14;107602;1267;72336;-70
2022/11/11 16:05:21;;;;;;;;;;;;;;;6.55;100.00;98857.29;107605;1271;68696;-70